Terminal Aerodrome Forecast
Issued by NWS

Current Version | Previous Version | Text Only | Print | Product List | Glossary On
Versions: 1 2 3 4 5 6 7 8 9 10 11 12 13 14 15 16 17
000
FTUS45 KSLC 250534
TAFOGD
TAF
KOGD 250534Z 2506/2606 17007KT P6SM SCT070 BKN100
     FM250900 18009KT P6SM VCSH SCT050 BKN080
     FM251300 18010KT P6SM BKN100
     FM251800 27008KT P6SM VCSH SCT050 BKN080
     FM260200 17006KT P6SM SCT070 BKN100=

USA.gov is the U.S. government's official web portal to all federal, state and local government web resources and services.